createdAt,value
2023-03-08T00:01:36.393Z,92.07
2023-03-08T00:04:07.084Z,92.16
2023-03-08T00:06:35.956Z,92.26
2023-03-08T00:09:09.150Z,92.26
2023-03-08T00:11:40.488Z,92.28
2023-03-08T00:14:08.596Z,92.37
2023-03-08T00:16:37.393Z,92.45
2023-03-08T00:19:06.557Z,92.44
2023-03-08T00:21:35.220Z,92.47
2023-03-08T00:24:03.596Z,92.61
2023-03-08T00:26:32.163Z,92.58
2023-03-08T00:29:04.660Z,92.72
2023-03-08T00:31:32.872Z,92.87
2023-03-08T00:34:01.621Z,92.93
2023-03-08T00:36:29.682Z,93.16
2023-03-08T00:38:58.414Z,93.20
2023-03-08T00:41:26.666Z,93.21
2023-03-08T00:43:55.119Z,93.25
2023-03-08T00:46:27.866Z,93.36
2023-03-08T00:48:56.062Z,93.58
2023-03-08T00:51:26.216Z,93.55
2023-03-08T00:53:54.699Z,93.65
2023-03-08T00:56:23.158Z,93.65
2023-03-08T00:58:51.639Z,93.72
2023-03-08T01:01:20.916Z,93.84
2023-03-08T01:03:51.170Z,93.91
2023-03-08T01:06:20.064Z,93.99
2023-03-08T01:08:48.105Z,93.99
2023-03-08T01:11:19.085Z,94.01
2023-03-08T01:13:49.006Z,94.01
2023-03-08T01:16:23.141Z,94.00
2023-03-08T01:18:53.870Z,94.15
2023-03-08T01:21:22.445Z,94.31
2023-03-08T01:23:50.993Z,94.27
2023-03-08T01:26:21.753Z,94.31
2023-03-08T01:28:52.818Z,94.31
2023-03-08T01:31:24.729Z,94.31
2023-03-08T01:33:57.548Z,94.34
2023-03-08T01:36:27.244Z,94.35
2023-03-08T01:38:55.494Z,94.21
2023-03-08T01:41:25.907Z,94.32
2023-03-08T01:43:56.432Z,94.49
2023-03-08T01:46:27.267Z,94.51
2023-03-08T01:49:03.841Z,94.54
2023-03-08T01:51:36.551Z,94.70
2023-03-08T01:54:08.460Z,94.79
2023-03-08T01:56:37.767Z,94.73
2023-03-08T01:59:07.920Z,94.78
2023-03-08T02:01:36.927Z,94.83
2023-03-08T02:04:08.724Z,94.84
2023-03-08T02:06:37.086Z,94.74
2023-03-08T02:09:05.898Z,94.82
2023-03-08T02:11:35.214Z,94.80
2023-03-08T02:14:03.507Z,94.85
2023-03-08T02:16:31.602Z,94.83
2023-03-08T02:19:01.566Z,94.85
2023-03-08T02:21:32.139Z,94.75
2023-03-08T02:24:07.796Z,94.84
2023-03-08T02:26:38.625Z,94.98
2023-03-08T02:29:06.759Z,94.98
2023-03-08T02:31:34.830Z,95.11
2023-03-08T02:34:03.190Z,95.12
2023-03-08T02:36:31.668Z,95.25
2023-03-08T02:39:00.296Z,95.20
2023-03-08T02:41:29.848Z,95.18
2023-03-08T02:43:58.368Z,95.14
2023-03-08T02:46:27.995Z,95.13
2023-03-08T02:48:56.293Z,95.04
2023-03-08T02:51:25.940Z,95.07
2023-03-08T02:53:55.066Z,95.16
2023-03-08T02:56:23.514Z,95.08
2023-03-08T02:58:53.354Z,95.10
2023-03-08T03:01:21.746Z,95.05
2023-03-08T03:03:50.256Z,95.05
2023-03-08T03:06:20.697Z,94.99
2023-03-08T03:08:49.237Z,94.94
2023-03-08T03:11:19.255Z,94.99
2023-03-08T03:13:48.310Z,94.95
2023-03-08T03:16:18.635Z,94.92
2023-03-08T03:18:47.006Z,94.83
2023-03-08T03:21:15.498Z,94.86
2023-03-08T03:23:43.857Z,94.94
2023-03-08T03:26:16.746Z,95.15
2023-03-08T03:28:45.492Z,95.21
2023-03-08T03:31:15.331Z,95.21
2023-03-08T03:33:47.964Z,95.31
2023-03-08T03:36:18.547Z,95.42
2023-03-08T03:38:48.380Z,95.33
2023-03-08T03:41:18.558Z,95.27
2023-03-08T03:43:47.430Z,95.29
2023-03-08T03:46:17.227Z,95.28
2023-03-08T03:48:47.261Z,95.32
2023-03-08T03:51:19.637Z,95.26
2023-03-08T03:53:48.711Z,95.23
2023-03-08T03:56:20.348Z,95.16
2023-03-08T03:58:49.183Z,95.11
2023-03-08T04:01:20.971Z,95.08
2023-03-08T04:03:50.787Z,94.94
2023-03-08T04:06:20.739Z,94.84
2023-03-08T04:08:49.568Z,94.87
2023-03-08T04:11:19.815Z,94.84
2023-03-08T04:13:48.429Z,94.85
2023-03-08T04:16:18.271Z,94.84
2023-03-08T04:18:47.062Z,94.85
2023-03-08T04:21:16.520Z,94.91
2023-03-08T04:23:44.713Z,95.00
2023-03-08T04:26:14.360Z,94.99
2023-03-08T04:28:43.651Z,94.92
2023-03-08T04:31:14.772Z,94.89
2023-03-08T04:33:43.619Z,94.96
2023-03-08T04:36:14.041Z,94.92
2023-03-08T04:38:47.025Z,94.94
2023-03-08T04:41:15.708Z,94.82
2023-03-08T04:43:46.627Z,94.96
2023-03-08T04:46:16.089Z,95.06
2023-03-08T04:48:44.985Z,95.15
2023-03-08T04:51:15.056Z,95.13
2023-03-08T04:53:45.685Z,95.14
2023-03-08T04:56:16.593Z,95.05
2023-03-08T04:58:45.198Z,94.96
2023-03-08T05:01:16.873Z,94.91
2023-03-08T05:03:45.854Z,95.10
2023-03-08T05:06:17.127Z,95.32
2023-03-08T05:08:46.720Z,95.41
2023-03-08T05:11:18.725Z,95.34
2023-03-08T05:13:49.702Z,95.32
2023-03-08T05:16:18.260Z,95.27
2023-03-08T05:18:47.903Z,95.35
2023-03-08T05:21:17.232Z,95.27
2023-03-08T05:23:48.542Z,95.31
2023-03-08T05:26:17.894Z,95.36
2023-03-08T05:28:46.341Z,95.38
2023-03-08T05:31:17.454Z,95.27
2023-03-08T05:33:52.309Z,95.25
2023-03-08T05:36:20.992Z,95.18
2023-03-08T05:38:53.893Z,95.31
2023-03-08T05:41:22.653Z,95.32
2023-03-08T05:43:50.876Z,95.18
2023-03-08T05:46:20.835Z,95.11
2023-03-08T05:48:50.878Z,95.09
2023-03-08T05:51:21.159Z,95.07
2023-03-08T05:53:51.459Z,95.07
2023-03-08T05:56:21.527Z,95.00
2023-03-08T05:58:50.609Z,95.05
2023-03-08T06:01:25.052Z,95.05
2023-03-08T06:03:55.906Z,95.62
2023-03-08T06:06:25.703Z,96.14
2023-03-08T06:08:56.345Z,96.05
2023-03-08T06:11:25.222Z,95.90
2023-03-08T06:13:54.738Z,95.57
2023-03-08T06:16:24.176Z,95.36
2023-03-08T06:18:52.412Z,95.06
2023-03-08T06:21:21.910Z,94.90
2023-03-08T06:23:50.302Z,94.63
2023-03-08T06:26:20.144Z,94.50
2023-03-08T06:28:49.770Z,94.19
2023-03-08T06:31:19.757Z,93.76
2023-03-08T06:33:47.946Z,93.41
2023-03-08T06:36:20.040Z,93.10
2023-03-08T06:38:55.529Z,92.63
2023-03-08T06:41:30.931Z,92.41
2023-03-08T06:44:00.421Z,92.32
2023-03-08T06:46:32.269Z,91.95
2023-03-08T06:49:01.542Z,91.65
2023-03-08T06:51:30.320Z,91.70
2023-03-08T06:54:09.561Z,90.72
2023-03-08T06:56:40.699Z,90.67
2023-03-08T06:59:09.058Z,90.17
2023-03-08T07:01:41.874Z,89.82
2023-03-08T07:04:10.125Z,89.44
2023-03-08T07:07:08.066Z,88.75
2023-03-08T07:09:40.445Z,88.32
2023-03-08T07:12:10.426Z,88.34
2023-03-08T07:14:38.481Z,88.00
2023-03-08T07:17:06.694Z,87.97
2023-03-08T07:19:34.969Z,87.46
2023-03-08T07:22:03.203Z,86.67
2023-03-08T07:24:37.794Z,86.50
2023-03-08T07:27:08.692Z,86.69
2023-03-08T07:29:38.132Z,86.05
2023-03-08T07:32:07.356Z,84.04
2023-03-08T07:34:35.615Z,83.50
2023-03-08T07:37:04.723Z,82.56
2023-03-08T07:39:35.865Z,80.95
2023-03-08T07:42:04.150Z,79.82
2023-03-08T07:44:32.478Z,80.17
2023-03-08T07:47:03.365Z,79.08
2023-03-08T07:49:32.010Z,77.83
2023-03-08T07:52:00.424Z,76.18
2023-03-08T07:54:28.525Z,75.32
2023-03-08T07:56:57.115Z,74.28
2023-03-08T07:59:25.879Z,74.53
2023-03-08T08:01:54.898Z,74.49
2023-03-08T08:04:25.189Z,73.52
2023-03-08T08:06:54.590Z,74.01
2023-03-08T08:09:22.825Z,74.86
2023-03-08T08:11:52.675Z,74.64
2023-03-08T08:14:21.415Z,73.62
2023-03-08T08:16:49.718Z,74.25
2023-03-08T08:19:18.155Z,73.92
2023-03-08T08:21:47.913Z,73.80
2023-03-08T08:24:17.213Z,73.71
2023-03-08T08:26:45.959Z,73.10
2023-03-08T08:29:14.792Z,74.30
2023-03-08T08:31:42.964Z,74.04
2023-03-08T08:34:11.437Z,73.72
2023-03-08T08:36:40.953Z,74.28
2023-03-08T08:39:10.568Z,75.15
2023-03-08T08:41:38.984Z,74.63
2023-03-08T08:44:08.589Z,74.05
2023-03-08T08:46:36.731Z,74.05
2023-03-08T08:49:06.441Z,73.57
2023-03-08T08:51:34.489Z,74.00
2023-03-08T08:54:02.875Z,73.72
2023-03-08T08:56:42.737Z,72.48
2023-03-08T08:59:11.825Z,74.98
2023-03-08T09:01:43.761Z,75.68
2023-03-08T09:04:13.464Z,74.67
2023-03-08T09:06:43.838Z,76.39
2023-03-08T09:09:12.397Z,74.17
2023-03-08T09:11:54.331Z,72.03
2023-03-08T09:14:23.380Z,72.09
2023-03-08T09:16:52.770Z,73.22
2023-03-08T09:19:22.229Z,72.72
2023-03-08T09:21:50.584Z,71.69
2023-03-08T09:24:19.251Z,71.60
2023-03-08T09:26:50.591Z,69.69
2023-03-08T09:29:18.771Z,67.81
2023-03-08T09:31:53.750Z,68.04
2023-03-08T09:34:28.633Z,68.98
2023-03-08T09:36:57.391Z,69.98
2023-03-08T09:39:29.417Z,69.27
2023-03-08T09:42:03.699Z,68.63
2023-03-08T09:44:45.805Z,69.02
2023-03-08T09:47:23.304Z,67.91
2023-03-08T09:49:53.967Z,67.92
2023-03-08T09:52:27.933Z,65.98
2023-03-08T09:54:56.047Z,67.22
2023-03-08T09:57:28.738Z,67.47
2023-03-08T10:00:02.586Z,64.98
2023-03-08T10:02:40.439Z,65.26
2023-03-08T10:05:14.468Z,65.85
2023-03-08T10:08:01.855Z,65.56
2023-03-08T10:10:37.954Z,65.20
2023-03-08T10:13:30.252Z,65.84
2023-03-08T10:16:07.246Z,66.41
2023-03-08T10:18:39.131Z,65.38
2023-03-08T10:21:09.862Z,63.53
2023-03-08T10:23:41.834Z,65.59
2023-03-08T10:26:16.689Z,66.50
2023-03-08T10:28:46.948Z,67.81
2023-03-08T10:31:23.487Z,67.01
2023-03-08T10:34:06.640Z,67.76
2023-03-08T10:36:34.807Z,68.07
2023-03-08T10:39:09.069Z,67.97
2023-03-08T10:41:44.201Z,67.39
2023-03-08T10:44:17.651Z,67.68
2023-03-08T10:46:50.917Z,66.34
2023-03-08T10:49:23.254Z,65.06
2023-03-08T10:51:57.957Z,64.89
2023-03-08T10:54:28.635Z,64.86
2023-03-08T10:56:59.241Z,65.08
2023-03-08T10:59:33.106Z,67.20
2023-03-08T11:02:03.275Z,66.92
2023-03-08T11:04:32.348Z,66.13
2023-03-08T11:07:12.975Z,66.42
2023-03-08T11:09:41.357Z,67.26
2023-03-08T11:12:25.173Z,65.42
2023-03-08T11:14:54.582Z,66.41
2023-03-08T11:17:25.511Z,66.80
2023-03-08T11:20:00.238Z,67.29
2023-03-08T11:22:37.362Z,68.65
2023-03-08T11:25:23.828Z,67.50
2023-03-08T11:28:06.018Z,66.13
2023-03-08T11:30:48.029Z,65.01
2023-03-08T11:33:41.906Z,63.64
2023-03-08T11:36:13.320Z,64.55
2023-03-08T11:38:43.442Z,65.35
2023-03-08T11:41:21.908Z,66.20
2023-03-08T11:44:11.173Z,65.66
2023-03-08T11:46:51.426Z,67.69
2023-03-08T11:49:32.989Z,66.75
2023-03-08T11:52:06.491Z,66.55
2023-03-08T11:54:47.434Z,67.39
2023-03-08T11:57:17.487Z,66.52
2023-03-08T11:59:48.737Z,66.96
2023-03-08T12:02:22.732Z,67.92
2023-03-08T12:05:01.759Z,66.61
2023-03-08T12:07:35.475Z,68.87
2023-03-08T12:10:06.674Z,67.78
2023-03-08T12:12:41.075Z,68.15
2023-03-08T12:15:19.965Z,67.20
2023-03-08T12:17:53.570Z,67.79
2023-03-08T12:20:22.445Z,67.99
2023-03-08T12:22:58.528Z,67.61
2023-03-08T12:25:29.015Z,66.97
2023-03-08T12:28:02.028Z,66.65
2023-03-08T12:30:45.688Z,66.25
2023-03-08T12:33:17.657Z,67.11
2023-03-08T12:35:53.766Z,67.37
2023-03-08T12:38:36.598Z,66.34
2023-03-08T12:41:07.023Z,69.02
2023-03-08T12:43:36.606Z,67.35
2023-03-08T12:46:08.112Z,68.42
2023-03-08T12:48:42.295Z,69.26
2023-03-08T12:51:21.907Z,69.94
2023-03-08T12:53:58.399Z,68.75
2023-03-08T12:56:31.906Z,68.64
2023-03-08T12:59:02.919Z,69.62
2023-03-08T13:01:38.749Z,69.55
2023-03-08T13:04:40.042Z,70.13
2023-03-08T13:07:18.878Z,70.70
2023-03-08T13:09:53.242Z,70.78
2023-03-08T13:12:29.512Z,70.91
2023-03-08T13:15:08.056Z,71.36
2023-03-08T13:17:42.536Z,71.40
2023-03-08T13:20:21.314Z,72.11
2023-03-08T13:23:07.344Z,72.63
2023-03-08T13:25:46.678Z,74.23
2023-03-08T13:28:18.084Z,74.60
2023-03-08T13:30:53.855Z,75.63
2023-03-08T13:33:27.891Z,75.75
2023-03-08T13:36:00.492Z,75.86
2023-03-08T13:38:31.732Z,76.34
2023-03-08T13:41:01.080Z,76.13
2023-03-08T13:43:30.984Z,76.84
2023-03-08T13:46:01.323Z,77.56
2023-03-08T13:48:34.872Z,77.68
2023-03-08T13:51:06.754Z,77.97
2023-03-08T13:53:40.388Z,78.17
2023-03-08T13:56:11.881Z,79.50
2023-03-08T13:58:42.653Z,79.44
2023-03-08T14:01:14.062Z,80.18
2023-03-08T14:03:50.324Z,81.16
2023-03-08T14:06:25.458Z,81.93
2023-03-08T14:08:58.972Z,82.91
2023-03-08T14:11:30.228Z,83.87
2023-03-08T14:14:02.626Z,84.73
2023-03-08T14:16:33.340Z,85.24
2023-03-08T14:19:11.276Z,85.41
2023-03-08T14:21:49.535Z,85.29
2023-03-08T14:24:25.279Z,85.12
2023-03-08T14:27:00.330Z,85.25
2023-03-08T14:29:29.466Z,85.01
2023-03-08T14:32:06.544Z,84.69
2023-03-08T14:34:39.474Z,84.59
2023-03-08T14:37:17.544Z,84.55
2023-03-08T14:39:48.202Z,84.93
2023-03-08T14:43:00.606Z,84.75
2023-03-08T14:45:34.309Z,84.70
2023-03-08T14:48:05.974Z,84.94
2023-03-08T14:50:36.429Z,85.01
2023-03-08T14:53:25.895Z,85.03
2023-03-08T14:55:53.980Z,85.38
2023-03-08T14:58:25.392Z,85.59
2023-03-08T15:00:58.286Z,86.13
2023-03-08T15:03:27.814Z,86.56
2023-03-08T15:05:56.512Z,86.95
2023-03-08T15:08:27.415Z,87.29
2023-03-08T15:10:56.921Z,87.51
2023-03-08T15:13:30.032Z,87.78
2023-03-08T15:15:58.600Z,88.15
2023-03-08T15:18:30.095Z,88.43
2023-03-08T15:21:01.422Z,88.76
2023-03-08T15:23:34.383Z,89.09
2023-03-08T15:26:04.046Z,89.37
2023-03-08T15:28:32.147Z,89.64
2023-03-08T15:31:00.983Z,89.95
2023-03-08T15:33:29.265Z,90.10
2023-03-08T15:35:58.038Z,90.25
2023-03-08T15:38:27.021Z,90.54
2023-03-08T15:40:59.584Z,90.86
2023-03-08T15:43:27.761Z,91.06
2023-03-08T15:45:56.051Z,91.26
2023-03-08T15:48:24.771Z,91.47
2023-03-08T15:50:52.800Z,91.65
2023-03-08T15:53:34.641Z,91.82
2023-03-08T15:56:05.358Z,91.99
2023-03-08T15:58:33.861Z,92.14
2023-03-08T16:01:01.977Z,92.29
2023-03-08T16:03:31.447Z,92.42
2023-03-08T16:06:00.256Z,92.55
2023-03-08T16:08:30.967Z,92.71
2023-03-08T16:11:03.860Z,92.86
2023-03-08T16:13:33.377Z,92.98
2023-03-08T16:16:02.841Z,93.05
2023-03-08T16:18:32.163Z,93.15
2023-03-08T16:21:00.232Z,93.18
2023-03-08T16:23:28.552Z,93.21
2023-03-08T16:26:13.945Z,93.22
2023-03-08T16:28:45.089Z,93.33
2023-03-08T16:31:13.835Z,93.47
2023-03-08T16:33:42.318Z,93.56
2023-03-08T16:36:10.486Z,93.70
2023-03-08T16:38:38.646Z,93.77
2023-03-08T16:41:13.164Z,93.89
2023-03-08T16:43:47.643Z,94.01
2023-03-08T16:46:21.587Z,94.09
2023-03-08T16:48:54.511Z,94.09
2023-03-08T16:51:24.939Z,94.21
2023-03-08T16:53:54.054Z,94.24
2023-03-08T16:56:23.578Z,94.33
2023-03-08T16:58:56.145Z,94.41
2023-03-08T17:01:24.846Z,94.44
2023-03-08T17:03:53.882Z,94.54
2023-03-08T17:06:24.215Z,94.59
2023-03-08T17:08:55.332Z,94.67
2023-03-08T17:11:26.148Z,94.74
2023-03-08T17:14:00.163Z,94.81
2023-03-08T17:16:29.827Z,94.82
2023-03-08T17:19:01.753Z,94.93
2023-03-08T17:21:38.709Z,94.93
2023-03-08T17:24:09.098Z,95.04
2023-03-08T17:26:41.366Z,95.12
2023-03-08T17:29:16.434Z,95.16
2023-03-08T17:31:47.146Z,95.19
2023-03-08T17:34:17.810Z,95.27
2023-03-08T17:36:56.486Z,95.33
2023-03-08T17:39:31.694Z,95.40
2023-03-08T17:42:00.459Z,95.42
2023-03-08T17:44:29.855Z,95.45
2023-03-08T17:46:58.125Z,95.49
2023-03-08T17:49:26.297Z,95.57
2023-03-08T17:51:55.176Z,95.57
2023-03-08T17:54:27.935Z,95.61
2023-03-08T17:56:56.272Z,95.65
2023-03-08T17:59:24.340Z,95.70
2023-03-08T18:01:53.727Z,95.74
2023-03-08T18:04:23.470Z,95.74
2023-03-08T18:06:51.690Z,95.79
2023-03-08T18:09:19.682Z,95.79
2023-03-08T18:11:48.273Z,95.82
2023-03-08T18:14:17.060Z,95.83
2023-03-08T18:16:45.649Z,95.89
2023-03-08T18:19:15.498Z,95.89
2023-03-08T18:21:43.644Z,95.85
2023-03-08T18:24:14.216Z,95.88
2023-03-08T18:26:43.074Z,95.90
2023-03-08T18:29:12.904Z,95.89
2023-03-08T18:31:41.314Z,95.93
2023-03-08T18:34:09.665Z,95.94
2023-03-08T18:36:39.744Z,95.95
2023-03-08T18:39:12.086Z,95.98
2023-03-08T18:41:40.540Z,96.01
2023-03-08T18:44:11.788Z,96.01
2023-03-08T18:46:40.243Z,96.04
2023-03-08T18:49:09.754Z,96.02
2023-03-08T18:51:42.002Z,96.05
2023-03-08T18:54:12.365Z,96.03
2023-03-08T18:56:40.475Z,96.02
2023-03-08T18:59:09.216Z,96.00
2023-03-08T19:01:37.621Z,96.04
2023-03-08T19:04:10.136Z,96.08
2023-03-08T19:06:39.696Z,96.02
2023-03-08T19:09:12.105Z,96.06
2023-03-08T19:11:40.433Z,96.06
2023-03-08T19:14:09.341Z,96.10
2023-03-08T19:16:37.871Z,96.11
2023-03-08T19:19:07.539Z,96.12
2023-03-08T19:21:37.432Z,96.14
2023-03-08T19:24:08.642Z,96.14
2023-03-08T19:26:38.958Z,96.14
2023-03-08T19:29:10.779Z,96.13
2023-03-08T19:31:40.735Z,96.19
2023-03-08T19:34:10.350Z,96.15
2023-03-08T19:36:38.890Z,96.20
2023-03-08T19:39:09.908Z,96.18
2023-03-08T19:41:37.966Z,96.20
2023-03-08T19:44:07.109Z,96.25
2023-03-08T19:46:36.957Z,96.23
2023-03-08T19:49:07.196Z,96.24
2023-03-08T19:51:36.187Z,96.22
2023-03-08T19:54:06.111Z,96.24
2023-03-08T19:56:36.098Z,96.22
2023-03-08T19:59:04.997Z,96.21
2023-03-08T20:01:33.214Z,96.21
2023-03-08T20:04:01.648Z,96.18
2023-03-08T20:06:32.282Z,96.21
2023-03-08T20:09:01.663Z,96.15
2023-03-08T20:11:32.561Z,96.17
2023-03-08T20:14:02.243Z,96.08
2023-03-08T20:16:30.810Z,96.07
2023-03-08T20:18:59.249Z,96.08
2023-03-08T20:21:31.604Z,96.07
2023-03-08T20:24:02.270Z,96.08
2023-03-08T20:26:56.102Z,96.08
2023-03-08T20:29:30.771Z,96.07
2023-03-08T20:32:09.398Z,96.05
2023-03-08T20:35:04.619Z,96.03
2023-03-08T20:37:33.064Z,96.00
2023-03-08T20:40:08.933Z,96.02
2023-03-08T20:42:37.791Z,96.01
2023-03-08T20:45:09.057Z,96.00
2023-03-08T20:47:39.708Z,95.97
2023-03-08T20:50:10.395Z,95.97
2023-03-08T20:52:38.851Z,95.97
2023-03-08T20:55:09.069Z,95.96
2023-03-08T20:57:37.481Z,95.94
2023-03-08T21:00:09.674Z,95.95
2023-03-08T21:02:38.310Z,95.88
2023-03-08T21:05:07.770Z,95.86
2023-03-08T21:07:36.383Z,95.84
2023-03-08T21:10:05.259Z,95.83
2023-03-08T21:12:33.565Z,95.81
2023-03-08T21:15:05.182Z,95.81
2023-03-08T21:17:40.046Z,95.80
2023-03-08T21:20:11.196Z,95.79
2023-03-08T21:22:39.581Z,95.75
2023-03-08T21:25:09.522Z,95.76
2023-03-08T21:27:38.739Z,95.77
2023-03-08T21:30:08.315Z,95.77
2023-03-08T21:32:39.088Z,95.75
2023-03-08T21:35:08.476Z,95.74
2023-03-08T21:37:36.773Z,95.74
2023-03-08T21:40:07.877Z,95.75
2023-03-08T21:42:36.207Z,95.74
2023-03-08T21:45:04.958Z,95.75
2023-03-08T21:47:33.234Z,95.72
2023-03-08T21:50:03.153Z,95.69
2023-03-08T21:52:31.652Z,95.68
2023-03-08T21:55:00.110Z,95.70
2023-03-08T21:57:28.816Z,95.70
2023-03-08T21:59:59.205Z,95.68
2023-03-08T22:02:27.468Z,95.67
2023-03-08T22:04:56.311Z,95.65
2023-03-08T22:07:25.635Z,95.61
2023-03-08T22:09:54.039Z,95.59
2023-03-08T22:12:22.106Z,95.58
2023-03-08T22:14:51.093Z,95.55
2023-03-08T22:17:20.229Z,95.59
2023-03-08T22:19:48.314Z,95.54
2023-03-08T22:22:17.000Z,95.52
2023-03-08T22:24:46.901Z,95.54
2023-03-08T22:27:16.382Z,95.52
2023-03-08T22:29:44.867Z,95.48
2023-03-08T22:32:12.947Z,95.48
2023-03-08T22:34:42.359Z,95.45
2023-03-08T22:37:13.145Z,95.48
2023-03-08T22:39:41.778Z,95.49
2023-03-08T22:42:11.772Z,95.47
2023-03-08T22:44:40.091Z,95.48
2023-03-08T22:47:09.642Z,95.48
2023-03-08T22:49:38.362Z,95.47
2023-03-08T22:52:09.845Z,95.50
2023-03-08T22:54:38.112Z,95.52
2023-03-08T22:57:06.646Z,95.49
2023-03-08T22:59:36.606Z,95.51
2023-03-08T23:02:06.260Z,95.51
2023-03-08T23:04:37.398Z,95.52
2023-03-08T23:07:06.591Z,95.49
2023-03-08T23:09:36.805Z,95.53
2023-03-08T23:12:06.251Z,95.49
2023-03-08T23:14:37.879Z,95.47
2023-03-08T23:17:11.791Z,95.49
2023-03-08T23:19:45.108Z,95.50
2023-03-08T23:22:15.714Z,95.43
2023-03-08T23:24:45.268Z,95.42
2023-03-08T23:27:13.694Z,95.45
2023-03-08T23:29:43.213Z,95.44
2023-03-08T23:32:12.100Z,95.43
2023-03-08T23:34:42.065Z,95.44
2023-03-08T23:37:10.408Z,95.40
2023-03-08T23:39:38.579Z,95.46
2023-03-08T23:42:08.912Z,95.48
2023-03-08T23:44:37.061Z,95.46
2023-03-08T23:47:08.274Z,95.41
2023-03-08T23:49:37.175Z,95.42
2023-03-08T23:52:07.023Z,95.42
2023-03-08T23:54:35.398Z,95.41
2023-03-08T23:57:04.014Z,95.36
2023-03-08T23:59:34.086Z,95.34
